
Distance (Route):
Temperature : -6.4°C
Humidity : 11.8%
Pressure : 0hPa| Receiver | Date | Latitude | Longitude | Direction | Speed | Altitude | Climb | Temperature | Humidity | Pressure | Voltage | Killtimer | Uptime | BKT | XDATA |
|---|---|---|---|---|---|---|---|---|---|---|---|---|---|---|---|
| LZ4TU-5 | 2026-09-01 12:50:30 | 44.76880 | 21.33425 | 96° | 40km/h | 5636m | -18.1m/s | -6.4°C | 11.8% | 0hPa | 5.6V | 00:00:00 | 00:00:00 | 00:00:00 | |
| LZ4TU-5 | 2026-09-01 12:50:25 | 44.76881 | 21.33354 | 91° | 40km/h | 5731m | -18.3m/s | -6.9°C | 15.3% | 0hPa | 5.6V | 00:00:00 | 00:00:00 | 00:00:00 | |
| LZ4TU-5 | 2026-09-01 12:48:18 | 44.76862 | 21.31137 | 96° | 77km/h | 8195m | -20.3m/s | -26.3°C | 19.2% | 0hPa | 5.6V | 00:00:00 | 00:00:00 | 00:00:00 | |
| LZ4TU-5 | 2026-09-01 12:48:12 | 44.76870 | 21.30998 | 96° | 80km/h | 8299m | -20.5m/s | -27.0°C | 23.6% | 0hPa | 5.6V | 00:00:00 | 00:00:00 | 00:00:00 | |
| LZ4TU-5 | 2026-09-01 12:46:10 | 44.77131 | 21.26833 | 98° | 122km/h | 10994m | -24.1m/s | -47.2°C | 23.2% | 0hPa | 5.6V | 00:00:00 | 00:00:00 | 00:00:00 | |
| LZ4TU-5 | 2026-09-01 12:46:06 | 44.77147 | 21.26616 | 96° | 124km/h | 11117m | -24.4m/s | -48.0°C | 22.8% | 0hPa | 5.6V | 00:00:00 | 00:00:00 | 00:00:00 | |
| LZ4TU-5 | 2026-09-01 12:43:38 | 44.77258 | 21.20208 | 94° | 73km/h | 15192m | -32.0m/s | -59.8°C | 0% | 0hPa | 5.6V | 00:00:00 | 00:00:00 | 00:00:00 | |
| LZ4TU-5 | 2026-09-01 12:43:33 | 44.77261 | 21.20104 | 91° | 73km/h | 15312m | -32.2m/s | -60.9°C | 1.8% | 0hPa | 5.6V | 00:00:00 | 00:00:00 | 00:00:00 | |
| LZ4TU-5 | 2026-09-01 12:43:28 | 44.77259 | 21.19980 | 90° | 64km/h | 15478m | -32.6m/s | -60.3°C | 1.5% | 0hPa | 5.6V | 00:00:00 | 00:00:00 | 00:00:00 | |
| LZ4TU-5 | 2026-09-01 12:43:22 | 44.77249 | 21.19854 | 80° | 58km/h | 15680m | -33.0m/s | -60.3°C | 1.5% | 0hPa | 5.6V | 00:00:00 | 00:00:00 | 00:00:00 | |
| LZ4TU-5 | 2026-09-01 12:43:16 | 44.77225 | 21.19723 | 75° | 68km/h | 15884m | -33.4m/s | -59.7°C | 1.4% | 0hPa | 5.6V | 00:00:00 | 00:00:00 | 00:00:00 | |
| LZ4TU-5 | 2026-09-01 12:41:09 | 44.76898 | 21.18412 | 56° | 24km/h | 21077m | -50.2m/s | -54.3°C | 1.2% | 0hPa | 5.6V | 00:00:00 | 00:00:00 | 00:00:00 | |
| LZ4TU-5 | 2026-09-01 12:41:05 | 44.76888 | 21.18384 | 89° | 22km/h | 21283m | -51.3m/s | -54.1°C | 1.3% | 0hPa | 5.6V | 00:00:00 | 00:00:00 | 00:00:00 | |
| LZ4TU-5 | 2026-09-01 12:41:00 | 44.76893 | 21.18353 | 131° | 15km/h | 21545m | -52.1m/s | -52.8°C | 1.1% | 0hPa | 5.6V | 00:00:00 | 00:00:00 | 00:00:00 | |
| LZ4TU-5 | 2026-09-01 12:38:55 | 44.76849 | 21.18290 | 128° | 16km/h | 30177m | -61.6m/s | -40.8°C | 3.5% | 0hPa | 5.6V | 00:00:00 | 00:00:00 | 00:00:00 | |
| LZ4TU-5 | 2026-09-01 12:38:51 | 44.76859 | 21.18278 | 163° | 16km/h | 30386m | -37.8m/s | -40.6°C | 3.5% | 0hPa | 5.6V | 00:00:00 | 00:00:00 | 00:00:00 | |
| LZ4TU-5 | 2026-09-01 12:38:46 | 44.76890 | 21.18260 | 153° | 35km/h | 30436m | 7.1m/s | -40.5°C | 3.3% | 0hPa | 5.6V | 00:00:00 | 00:00:00 | 00:00:00 | |
| LZ4TU-5 | 2026-09-01 12:38:42 | 44.76900 | 21.18226 | 114° | 15km/h | 30408m | 7.6m/s | -40.6°C | 3.3% | 0hPa | 5.6V | 00:00:00 | 00:00:00 | 00:00:00 | |
| LZ4TU-5 | 2026-09-01 12:36:45 | 44.76932 | 21.17962 | 86° | 11km/h | 29580m | 7.6m/s | -42.0°C | 3.5% | 0hPa | 5.6V | 00:00:00 | 00:00:00 | 00:00:00 | |
| LZ4TU-5 | 2026-09-01 12:36:40 | 44.76929 | 21.17945 | 46° | 18km/h | 29546m | 6.1m/s | -41.9°C | 3.4% | 0hPa | 5.6V | 00:00:00 | 00:00:00 | 00:00:00 | |
| OE3JTB-15 | 2026-09-01 12:36:30 | 44.76889 | 21.17928 | 50° | 15km/h | 29446m | 5.8m/s | -41.4°C | 0% | 0hPa | 5.6V | 00:00:00 | 00:00:00 | 00:00:00 | |
| LZ4TU-5 | 2026-09-01 12:34:42 | 44.76674 | 21.17733 | 209° | 24km/h | 28711m | 5.7m/s | -42.7°C | 3.0% | 0hPa | 5.6V | 00:00:00 | 00:00:00 | 00:00:00 | |
| LZ4TU-5 | 2026-09-01 12:32:51 | 44.76647 | 21.17570 | 285° | 9km/h | 27942m | 8.7m/s | -45.1°C | 3.1% | 0hPa | 5.6V | 00:00:00 | 00:00:00 | 00:00:00 | |
| LZ4TU-5 | 2026-09-01 12:32:45 | 44.76655 | 21.17584 | 227° | 22km/h | 27909m | 5.8m/s | -44.9°C | 3.0% | 0hPa | 5.6V | 00:00:00 | 00:00:00 | 00:00:00 | |
| LZ4TU-5 | 2026-09-01 12:30:53 | 44.76835 | 21.17843 | 162° | 13km/h | 27164m | 7.6m/s | -47.7°C | 2.9% | 0hPa | 5.6V | 00:00:00 | 00:00:00 | 00:00:00 | |
| LZ4TU-5 | 2026-09-01 12:30:48 | 44.76844 | 21.17840 | 265° | 4km/h | 27133m | 4.2m/s | -47.9°C | 0% | 0hPa | 5.6V | 00:00:00 | 00:00:00 | 00:00:00 | |
| LZ4TU-5 | 2026-09-01 12:28:54 | 44.76873 | 21.17845 | 22° | 11km/h | 26367m | 7.1m/s | -49.7°C | 2.9% | 0hPa | 5.6V | 00:00:00 | 00:00:00 | 00:00:00 | |
| LZ4TU-5 | 2026-09-01 12:28:48 | 44.76869 | 21.17843 | 76° | 7km/h | 26330m | 8.0m/s | -49.4°C | 2.8% | 0hPa | 5.6V | 00:00:00 | 00:00:00 | 00:00:00 | |
| LZ4TU-5 | 2026-09-01 12:26:54 | 44.76782 | 21.18011 | 221° | 13km/h | 25550m | 6.1m/s | -51.2°C | 2.9% | 0hPa | 5.6V | 00:00:00 | 00:00:00 | 00:00:00 | |
| LZ4TU-5 | 2026-09-01 12:26:51 | 44.76791 | 21.18020 | 257° | 13km/h | 25522m | 7.7m/s | -51.0°C | 2.8% | 0hPa | 5.6V | 00:00:00 | 00:00:00 | 00:00:00 | |
| OE3JTB-15 | 2026-09-01 12:26:48 | 44.76809 | 21.18049 | 210° | 24km/h | 25483m | 7.5m/s | -50.1°C | 0% | 0hPa | 5.6V | 00:00:00 | 00:00:00 | 00:00:00 | |
| OM5KV | 2026-09-01 12:26:39 | 44.76823 | 21.18070 | 340° | 15km/h | 25451m | 5.9m/s | -50.8°C | 2.9% | 0hPa | 5.6V | 00:00:00 | 00:00:00 | 00:00:00 | |
| OM5KV | 2026-09-01 12:26:34 | 44.76834 | 21.18075 | 194° | 26km/h | 25419m | 6.1m/s | -50.8°C | 2.9% | 0hPa | 5.6V | 00:00:00 | 00:00:00 | 00:00:00 | |
| OM5KV | 2026-09-01 12:26:24 | 44.76870 | 21.18095 | 140° | 26km/h | 25351m | 8.1m/s | -50.7°C | 2.8% | 0hPa | 5.6V | 00:00:00 | 00:00:00 | 00:00:00 | |
| OM5KV | 2026-09-01 12:26:18 | 44.76912 | 21.18106 | 214° | 7km/h | 25312m | 8.1m/s | -50.2°C | 2.7% | 0hPa | 5.6V | 00:00:00 | 00:00:00 | 00:00:00 | |
| OM5KV | 2026-09-01 12:26:13 | 44.76916 | 21.18094 | 156° | 16km/h | 25278m | 9.0m/s | -50.1°C | 2.8% | 0hPa | 5.6V | 00:00:00 | 00:00:00 | 00:00:00 | |
| OM5KV | 2026-09-01 12:25:59 | 44.76962 | 21.18069 | 176° | 18km/h | 25183m | 8.2m/s | -49.9°C | 2.7% | 0hPa | 5.6V | 00:00:00 | 00:00:00 | 00:00:00 | |
| OM5KV | 2026-09-01 12:25:48 | 44.76981 | 21.18026 | 184° | 27km/h | 25102m | 5.6m/s | -49.9°C | 2.7% | 0hPa | 5.6V | 00:00:00 | 00:00:00 | 00:00:00 | |
| OM5KV | 2026-09-01 12:25:47 | 44.76981 | 21.18026 | 184° | 27km/h | 25102m | 5.6m/s | -49.9°C | 2.7% | 0hPa | 5.6V | 00:00:00 | 00:00:00 | 00:00:00 | |
| OM5KV | 2026-09-01 12:25:33 | 44.76993 | 21.17975 | 83° | 13km/h | 25006m | 8.1m/s | -49.7°C | 2.7% | 0hPa | 5.6V | 00:00:00 | 00:00:00 | 00:00:00 | |
| OM5KV | 2026-09-01 12:25:19 | 44.76977 | 21.17909 | 77° | 15km/h | 24911m | 6.0m/s | -49.9°C | 2.5% | 0hPa | 5.6V | 00:00:00 | 00:00:00 | 00:00:00 | |
| OM5KV | 2026-09-01 12:25:17 | 44.76974 | 21.17901 | 46° | 13km/h | 24896m | 8.5m/s | -49.9°C | 2.5% | 0hPa | 5.6V | 00:00:00 | 00:00:00 | 00:00:00 | |
| OM5KV | 2026-09-01 12:25:10 | 44.76965 | 21.17875 | 65° | 22km/h | 24849m | 7.5m/s | -50.3°C | 2.5% | 0hPa | 5.6V | 00:00:00 | 00:00:00 | 00:00:00 | |
| OM5KV | 2026-09-01 12:25:05 | 44.76952 | 21.17851 | 40° | 11km/h | 24814m | 6.8m/s | -50.4°C | 2.6% | 0hPa | 5.6V | 00:00:00 | 00:00:00 | 00:00:00 | |
| LZ4TU-5 | 2026-09-01 12:24:59 | 44.76948 | 21.17822 | 79° | 15km/h | 24775m | 6.9m/s | -50.5°C | 2.5% | 0hPa | 5.6V | 00:00:00 | 00:00:00 | 00:00:00 | |
| LZ4TU-5 | 2026-09-01 12:24:54 | 44.76938 | 21.17804 | 86° | 9km/h | 24742m | 3.9m/s | -50.6°C | 2.5% | 0hPa | 5.6V | 00:00:00 | 00:00:00 | 00:00:00 | |
| OE3JTB-15 | 2026-09-01 12:24:34 | 44.76878 | 21.17797 | 334° | 13km/h | 24582m | 7.8m/s | -50.7°C | 0% | 0hPa | 5.6V | 00:00:00 | 00:00:00 | 00:00:00 | |
| OE3JTB-15 | 2026-09-01 12:23:44 | 44.76775 | 21.17738 | 66° | 13km/h | 24247m | 7.3m/s | -51.4°C | 0% | 0hPa | 5.6V | 00:00:00 | 00:00:00 | 00:00:00 | |
| OE3JTB-15 | 2026-09-01 12:23:15 | 44.76706 | 21.17709 | 260° | 13km/h | 24048m | 3.9m/s | -51.7°C | 0% | 0hPa | 5.6V | 00:00:00 | 00:00:00 | 00:00:00 | |
| LZ4TU-5 | 2026-09-01 12:23:00 | 44.76697 | 21.17741 | 0° | 0km/h | 23973m | 8.4m/s | -52.6°C | 2.6% | 0hPa | 5.6V | 00:00:00 | 00:00:00 | 00:00:00 | |
| LZ4TU-5 | 2026-09-01 12:22:55 | 44.76687 | 21.17729 | 86° | 16km/h | 23940m | 6.0m/s | -52.7°C | 2.7% | 0hPa | 5.6V | 00:00:00 | 00:00:00 | 00:00:00 | |
| OE3JTB-15 | 2026-09-01 12:21:49 | 44.76569 | 21.17855 | 183° | 15km/h | 23491m | 4.7m/s | -52.0°C | 0% | 0hPa | 5.6V | 00:00:00 | 00:00:00 | 00:00:00 | |
| LZ4TU-5 | 2026-09-01 12:21:04 | 44.76470 | 21.17780 | 34° | 11km/h | 23216m | 7.6m/s | -52.7°C | 2.7% | 0hPa | 5.6V | 00:00:00 | 00:00:00 | 00:00:00 | |
| LZ4TU-5 | 2026-09-01 12:20:59 | 44.76468 | 21.17784 | 335° | 18km/h | 23185m | 5.8m/s | -52.7°C | 2.7% | 0hPa | 5.6V | 00:00:00 | 00:00:00 | 00:00:00 | |
| OE3JTB-15 | 2026-09-01 12:20:06 | 44.76296 | 21.17873 | 330° | 11km/h | 22815m | 5.4m/s | -51.5°C | 0% | 0hPa | 5.6V | 00:00:00 | 00:00:00 | 00:00:00 | |
| OE3JTB-15 | 2026-09-01 12:19:33 | 44.76318 | 21.17918 | 68° | 13km/h | 22600m | 8.2m/s | -51.1°C | 0% | 0hPa | 5.6V | 00:00:00 | 00:00:00 | 00:00:00 | |
| LZ4TU-5 | 2026-09-01 12:19:01 | 44.76288 | 21.17898 | 331° | 4km/h | 22418m | 5.7m/s | -52.6°C | 2.7% | 0hPa | 5.6V | 00:00:00 | 00:00:00 | 00:00:00 | |
| LZ4TU-5 | 2026-09-01 12:18:56 | 44.76301 | 21.17898 | 147° | 16km/h | 22386m | 6.0m/s | -52.5°C | 2.7% | 0hPa | 5.6V | 00:00:00 | 00:00:00 | 00:00:00 | |
| OE3JTB-15 | 2026-09-01 12:18:00 | 44.76212 | 21.17906 | 2° | 9km/h | 22012m | 4.8m/s | -52.5°C | 0% | 0hPa | 5.6V | 00:00:00 | 00:00:00 | 00:00:00 | |
| OE3JTB-15 | 2026-09-01 12:17:23 | 44.76202 | 21.17866 | 165° | 20km/h | 21783m | 6.1m/s | -52.1°C | 0% | 0hPa | 5.6V | 00:00:00 | 00:00:00 | 00:00:00 | |
| LZ4TU-5 | 2026-09-01 12:17:06 | 44.76256 | 21.17814 | 137° | 13km/h | 21695m | 6.3m/s | -53.5°C | 2.6% | 0hPa | 5.6V | 00:00:00 | 00:00:00 | 00:00:00 | |
| LZ4TU-5 | 2026-09-01 12:17:00 | 44.76260 | 21.17792 | 130° | 15km/h | 21667m | 5.1m/s | -53.5°C | 2.6% | 0hPa | 5.6V | 00:00:00 | 00:00:00 | 00:00:00 | |
| OE3JTB-15 | 2026-09-01 12:16:52 | 44.76291 | 21.17728 | 94° | 22km/h | 21598m | 6.9m/s | -52.6°C | 0% | 0hPa | 5.6V | 00:00:00 | 00:00:00 | 00:00:00 | |
| LZ4TU-5 | 2026-09-01 12:15:09 | 44.76006 | 21.17025 | 12° | 18km/h | 21004m | 4.9m/s | -54.6°C | 2.6% | 0hPa | 5.7V | 00:00:00 | 00:00:00 | 00:00:00 | |
| LZ4TU-5 | 2026-09-01 12:15:04 | 44.75988 | 21.17014 | 59° | 13km/h | 20973m | 5.4m/s | -54.5°C | 2.6% | 0hPa | 5.7V | 00:00:00 | 00:00:00 | 00:00:00 | |
| LZ4TU-5 | 2026-09-01 12:13:07 | 44.75365 | 21.16786 | 9° | 16km/h | 20267m | 6.5m/s | -54.8°C | 2.5% | 0hPa | 5.7V | 00:00:00 | 00:00:00 | 00:00:00 | |
| LZ4TU-5 | 2026-09-01 12:13:03 | 44.75352 | 21.16781 | 22° | 15km/h | 20236m | 6.1m/s | -54.8°C | 2.4% | 0hPa | 5.7V | 00:00:00 | 00:00:00 | 00:00:00 | |
| OE3JTB-15 | 2026-09-01 12:12:09 | 44.75171 | 21.16530 | 27° | 27km/h | 19896m | 7.6m/s | -54.6°C | 0% | 0hPa | 5.7V | 00:00:00 | 00:00:00 | 00:00:00 | |
| OE3JTB-15 | 2026-09-01 12:11:40 | 44.75039 | 21.16375 | 64° | 16km/h | 19725m | 6.4m/s | -54.4°C | 0% | 0hPa | 5.7V | 00:00:00 | 00:00:00 | 00:00:00 | |
| OE3JTB-15 | 2026-09-01 12:11:11 | 44.74949 | 21.16298 | 29° | 18km/h | 19558m | 5.4m/s | -54.6°C | 0% | 0hPa | 5.7V | 00:00:00 | 00:00:00 | 00:00:00 | |
| LZ4TU-5 | 2026-09-01 12:11:02 | 44.74930 | 21.16261 | 29° | 15km/h | 19512m | 6.6m/s | -55.7°C | 2.3% | 0hPa | 5.7V | 00:00:00 | 00:00:00 | 00:00:00 | |
| LZ4TU-5 | 2026-09-01 12:10:58 | 44.74906 | 21.16257 | 26° | 22km/h | 19484m | 6.1m/s | -55.8°C | 2.3% | 0hPa | 5.7V | 00:00:00 | 00:00:00 | 00:00:00 | |
| OE3JTB-15 | 2026-09-01 12:10:43 | 44.74850 | 21.16192 | 61° | 20km/h | 19402m | 6.7m/s | -55.4°C | 0% | 0hPa | 5.7V | 00:00:00 | 00:00:00 | 00:00:00 | |
| OE3JTB-15 | 2026-09-01 12:09:25 | 44.74650 | 21.16020 | 278° | 11km/h | 18953m | 5.4m/s | -54.6°C | 0% | 0hPa | 5.7V | 00:00:00 | 00:00:00 | 00:00:00 | |
| LZ4TU-5 | 2026-09-01 12:09:06 | 44.74647 | 21.15983 | 138° | 11km/h | 18835m | 4.7m/s | -54.8°C | 2.6% | 0hPa | 5.7V | 00:00:00 | 00:00:00 | 00:00:00 | |
| LZ4TU-5 | 2026-09-01 12:09:00 | 44.74652 | 21.15975 | 126° | 13km/h | 18805m | 5.2m/s | -55.0°C | 2.6% | 0hPa | 5.7V | 00:00:00 | 00:00:00 | 00:00:00 | |
| OE3JTB-15 | 2026-09-01 12:08:54 | 44.74663 | 21.15942 | 138° | 29km/h | 18770m | 5.3m/s | -54.1°C | 0% | 0hPa | 5.7V | 00:00:00 | 00:00:00 | 00:00:00 | |
| OE3JTB-15 | 2026-09-01 12:08:25 | 44.74748 | 21.15671 | 122° | 44km/h | 18598m | 6.5m/s | -55.2°C | 0% | 0hPa | 5.7V | 00:00:00 | 00:00:00 | 00:00:00 | |
| OE3JTB-15 | 2026-09-01 12:07:56 | 44.74704 | 21.15229 | 89° | 38km/h | 18427m | 5.3m/s | -56.4°C | 0% | 0hPa | 5.7V | 00:00:00 | 00:00:00 | 00:00:00 | |
| LZ4TU-5 | 2026-09-01 12:07:07 | 44.74584 | 21.14610 | 54° | 37km/h | 18143m | 6.4m/s | -56.0°C | 3.2% | 0hPa | 0V | 00:00:00 | 00:00:00 | 00:00:00 | |
| LZ4TU-5 | 2026-09-01 12:07:02 | 44.74554 | 21.14569 | 50° | 29km/h | 18114m | 6.5m/s | -55.9°C | 3.2% | 0hPa | 0V | 00:00:00 | 00:00:00 | 00:00:00 | |
| LZ4TU-5 | 2026-09-01 12:05:16 | 44.74187 | 21.13661 | 98° | 27km/h | 17492m | 5.2m/s | -57.5°C | 3.2% | 0hPa | 0V | 00:00:00 | 00:00:00 | 00:00:00 | |
| LZ4TU-5 | 2026-09-01 12:05:12 | 44.74187 | 21.13623 | 72° | 31km/h | 17473m | 5.1m/s | -57.6°C | 3.2% | 0hPa | 0V | 00:00:00 | 00:00:00 | 00:00:00 | |
| LZ4TU-5 | 2026-09-01 12:03:19 | 44.74042 | 21.12414 | 115° | 24km/h | 16846m | 5.2m/s | -58.4°C | 4.0% | 0hPa | 0V | 00:00:00 | 00:00:00 | 00:00:00 | |
| LZ4TU-5 | 2026-09-01 12:03:14 | 44.74058 | 21.12383 | 115° | 26km/h | 16820m | 5.2m/s | -58.4°C | 4.1% | 0hPa | 0V | 00:00:00 | 00:00:00 | 00:00:00 | |
| LZ4TU-5 | 2026-09-01 12:01:33 | 44.74158 | 21.10456 | 79° | 88km/h | 16269m | 6.3m/s | -59.3°C | 5.1% | 0hPa | 0V | 00:00:00 | 00:00:00 | 00:00:00 | |
| LZ4TU-5 | 2026-09-01 12:01:27 | 44.74135 | 21.10306 | 75° | 80km/h | 16242m | 6.3m/s | -59.5°C | 5.2% | 0hPa | 0V | 00:00:00 | 00:00:00 | 00:00:00 | |
| LZ4TU-5 | 2026-09-01 11:59:38 | 44.73581 | 21.07828 | 84° | 46km/h | 15652m | 5.3m/s | -60.4°C | 5.8% | 0hPa | 0V | 00:00:00 | 00:00:00 | 00:00:00 | |
| LZ4TU-5 | 2026-09-01 11:59:32 | 44.73577 | 21.07741 | 89° | 57km/h | 15627m | 4.6m/s | -60.2°C | 5.7% | 0hPa | 0V | 00:00:00 | 00:00:00 | 00:00:00 | |
| LZ4TU-5 | 2026-09-01 11:57:45 | 44.73618 | 21.05140 | 100° | 82km/h | 15033m | 4.9m/s | -59.1°C | 6.8% | 0hPa | 0V | 00:00:00 | 00:00:00 | 00:00:00 | |
| LZ4TU-5 | 2026-09-01 11:57:39 | 44.73616 | 21.04995 | 90° | 78km/h | 15006m | 5.0m/s | -58.8°C | 7.0% | 0hPa | 0V | 00:00:00 | 00:00:00 | 00:00:00 | |
| LZ4TU-5 | 2026-09-01 11:55:51 | 44.73575 | 21.01754 | 87° | 100km/h | 14421m | 6.9m/s | -58.3°C | 9.2% | 0hPa | 0V | 00:00:00 | 00:00:00 | 00:00:00 | |
| LZ4TU-5 | 2026-09-01 11:55:47 | 44.73555 | 21.01558 | 84° | 108km/h | 14389m | 5.4m/s | -58.1°C | 9.4% | 0hPa | 0V | 00:00:00 | 00:00:00 | 00:00:00 | |
| LZ4TU-5 | 2026-09-01 11:54:03 | 44.73518 | 20.97512 | 89° | 120km/h | 13809m | 5.1m/s | -59.1°C | 14.8% | 0hPa | 0V | 00:00:00 | 00:00:00 | 00:00:00 | |
| LZ4TU-5 | 2026-09-01 11:53:58 | 44.73511 | 20.97300 | 91° | 119km/h | 13783m | 5.5m/s | -59.2°C | 15.1% | 0hPa | 0V | 00:00:00 | 00:00:00 | 00:00:00 | |
| LZ4TU-5 | 2026-09-01 11:52:16 | 44.73409 | 20.92759 | 86° | 142km/h | 13258m | 6.4m/s | -59.8°C | 20.8% | 0hPa | 0V | 00:00:00 | 00:00:00 | 00:00:00 | |
| LZ4TU-5 | 2026-09-01 11:52:12 | 44.73420 | 20.92567 | 101° | 130km/h | 13231m | 5.4m/s | -59.7°C | 0% | 0hPa | 0V | 00:00:00 | 00:00:00 | 00:00:00 | |
| LZ4TU-5 | 2026-09-01 11:50:29 | 44.73497 | 20.87720 | 95° | 135km/h | 12614m | 5.0m/s | -57.1°C | 20.7% | 0hPa | 0V | 00:00:00 | 00:00:00 | 00:00:00 | |
| LZ4TU-5 | 2026-09-01 11:50:24 | 44.73501 | 20.87533 | 90° | 135km/h | 12587m | 6.8m/s | -56.9°C | 20.6% | 0hPa | 0V | 00:00:00 | 00:00:00 | 00:00:00 | |
| LZ4TU-5 | 2026-09-01 11:48:39 | 44.73569 | 20.82232 | 98° | 139km/h | 11936m | 6.3m/s | -52.3°C | 17.5% | 0hPa | 0V | 00:00:00 | 00:00:00 | 00:00:00 | |
| LZ4TU-5 | 2026-09-01 11:48:34 | 44.73568 | 20.81996 | 85° | 131km/h | 11896m | 5.8m/s | -52.1°C | 17.7% | 0hPa | 0V | 00:00:00 | 00:00:00 | 00:00:00 | |
| LZ4TU-5 | 2026-09-01 11:46:48 | 44.73755 | 20.76858 | 86° | 126km/h | 11264m | 6.0m/s | -48.7°C | 17.5% | 0hPa | 0V | 00:00:00 | 00:00:00 | 00:00:00 | |
| LZ4TU-5 | 2026-09-01 11:46:44 | 44.73756 | 20.76676 | 97° | 133km/h | 11241m | 5.2m/s | -48.5°C | 17.4% | 0hPa | 0V | 00:00:00 | 00:00:00 | 00:00:00 | |
| LZ4TU-5 | 2026-09-01 11:44:59 | 44.74064 | 20.72012 | 103° | 137km/h | 10583m | 5.9m/s | -44.6°C | 19.4% | 0hPa | 0V | 00:00:00 | 00:00:00 | 00:00:00 | |
| LZ4TU-5 | 2026-09-01 11:43:22 | 44.74207 | 20.68217 | 92° | 106km/h | 9998m | 5.4m/s | -41.6°C | 25.9% | 0hPa | 0V | 00:00:00 | 00:00:00 | 00:00:00 | |
| LZ4TU-5 | 2026-09-01 11:43:17 | 44.74222 | 20.68096 | 103° | 75km/h | 9969m | 6.6m/s | -41.3°C | 25.4% | 0hPa | 0V | 00:00:00 | 00:00:00 | 00:00:00 | |
| LZ4TU-5 | 2026-09-01 11:41:37 | 44.74466 | 20.64740 | 99° | 110km/h | 9364m | 4.0m/s | -36.6°C | 20.9% | 0hPa | 0V | 00:00:00 | 00:00:00 | 00:00:00 | |
| LZ4TU-5 | 2026-09-01 11:41:32 | 44.74487 | 20.64576 | 90° | 77km/h | 9341m | 5.0m/s | -36.4°C | 21.2% | 0hPa | 0V | 00:00:00 | 00:00:00 | 00:00:00 | |
| LZ4TU-5 | 2026-09-01 11:40:01 | 44.74665 | 20.61655 | 89° | 88km/h | 8847m | 5.8m/s | -33.0°C | 23.1% | 0hPa | 0V | 00:00:00 | 00:00:00 | 00:00:00 | |
| LZ4TU-5 | 2026-09-01 11:39:56 | 44.74660 | 20.61510 | 94° | 95km/h | 8818m | 6.2m/s | -32.8°C | 22.8% | 0hPa | 0V | 00:00:00 | 00:00:00 | 00:00:00 | |
| LZ4TU-5 | 2026-09-01 11:38:23 | 44.74875 | 20.58723 | 102° | 95km/h | 8306m | 4.9m/s | -28.8°C | 22.0% | 0hPa | 0V | 00:00:00 | 00:00:00 | 00:00:00 | |
| LZ4TU-5 | 2026-09-01 11:38:19 | 44.74909 | 20.58572 | 109° | 73km/h | 8278m | 5.0m/s | -28.5°C | 21.1% | 0hPa | 0V | 00:00:00 | 00:00:00 | 00:00:00 | |
| LZ4TU-5 | 2026-09-01 11:36:27 | 44.74970 | 20.55930 | 85° | 46km/h | 7649m | 5.3m/s | -23.9°C | 8.6% | 0hPa | 0V | 00:00:00 | 00:00:00 | 00:00:00 | |
| LZ4TU-5 | 2026-09-01 11:36:22 | 44.74969 | 20.55815 | 100° | 73km/h | 7624m | 4.6m/s | -23.8°C | 8.8% | 0hPa | 0V | 00:00:00 | 00:00:00 | 00:00:00 | |
| LZ4TU-5 | 2026-09-01 11:35:05 | 44.74931 | 20.54273 | 77° | 58km/h | 7201m | 7.8m/s | -20.3°C | 9.9% | 0hPa | 0V | 00:00:00 | 00:00:00 | 00:00:00 | |
| LZ4TU-5 | 2026-09-01 11:35:00 | 44.74916 | 20.54185 | 88° | 22km/h | 7172m | 6.6m/s | -20.0°C | 9.9% | 0hPa | 0V | 00:00:00 | 00:00:00 | 00:00:00 | |
| LZ4TU-5 | 2026-09-01 11:33:42 | 44.74899 | 20.52905 | 96° | 22km/h | 6763m | 4.6m/s | !°C | 9.2% | 0hPa | 0V | 00:00:00 | 00:00:00 | 00:00:00 | |
| LZ4TU-5 | 2026-09-01 11:33:36 | 44.74899 | 20.52827 | 77° | 73km/h | 6732m | 7.5m/s | -15.9°C | 9.2% | 0hPa | 0V | 00:00:00 | 00:00:00 | 00:00:00 | |
| LZ4TU-5 | 2026-09-01 11:33:31 | 44.74876 | 20.52731 | 68° | 31km/h | 6703m | 7.7m/s | -15.8°C | 9.3% | 0hPa | 0V | 00:00:00 | 00:00:00 | 00:00:00 | |
| LZ4TU-5 | 2026-09-01 11:33:26 | 44.74862 | 20.52697 | 89° | 27km/h | 6679m | 6.6m/s | -15.5°C | 9.3% | 0hPa | 0V | 00:00:00 | 00:00:00 | 00:00:00 | |
| LZ4TU-5 | 2026-09-01 11:33:22 | 44.74868 | 20.52620 | 90° | 69km/h | 6659m | 3.1m/s | -15.3°C | 9.2% | 0hPa | 0V | 00:00:00 | 00:00:00 | 00:00:00 | |
| LZ4TU-5 | 2026-09-01 11:33:17 | 44.74842 | 20.52525 | 42° | 38km/h | 6636m | 5.9m/s | -15.2°C | 9.3% | 0hPa | 0V | 00:00:00 | 00:00:00 | 00:00:00 |